CheckWX is a tool to help pilots better visualize weather data.  It is not intended as a substitute for an official pre-flight weather briefing.

05:39:08 UTC

KSUX TAF
Sioux Gateway / Col Bud Day Field Airport
Sioux City, Iowa, USA
KSUX 222335Z 2300/2324 11007KT P6SM FEW250 FM231700 13010G15KT P6SM FEW250

Aug-23@
00:00 UTC

Aug-23 @ 00:00 UTC

Aug-23@
17:00 UTC

Aug-23 @ 17:00 UTC

KSUX 222335Z 2300/2324 11007KT P6SM FEW250
Wind
  • 110° at 7 KTS
Cloud Levels
  • Few at 25,000' AGL

Aug-23@
17:00 UTC

Aug-23 @ 17:00 UTC

Aug-24@
00:00 UTC

Aug-24 @ 00:00 UTC

FM231700 13010G15KT P6SM FEW250

From

From Standard forecast or significant change

Wind
  • 130° at 10 KTS
  • {Gusting to 15 KTS
Cloud Levels
  • Few at 25,000' AGL